Terminal Aerodrome Forecast
Issued by NWS

Home | Current Version | Previous Version | Text Only | Print | Product List | Glossary On
Versions: 1 2 3 4 5 6 7 8 9 10 11 12 13 14 15 16 17 18 19 20 21 22 23
000
FTUS42 KTBW 031700
TAFRSW
TAF
KRSW 031739Z 0318/0418 13011KT P6SM BKN040
     FM032300 VRB05KT P6SM SCT050 SCT250
     FM040100 VRB03KT P6SM FEW050 SCT250
     FM040800 11004KT 4SM BR SCT010 SCT250
      TEMPO 0409/0413 1SM BR BKN010
     FM041400 14010KT P6SM SCT015 SCT250
     FM041700 17013KT P6SM SCT035 SCT250=

USA.gov is the U.S. government's official web portal to all federal, state and local government web resources and services.